• Join FlightAware (Why Join?)
  • Login
  • US Flag 
02:20AM EDT


 

Airport Tracker/Info


-or-


 

Live Flight TrackerFlight Track Log ✈ CDG4880 ✈ 19-Dec-2013 ✈ ZLXY / XIY - ZSWY / WUS

Flight Track Log - Related Links

Times and Time Zones

All times are in EST time to prevent confusion due to time zone crossing. See the CDG4880 flight status page for this flight to view local times or setup timezone preferences in your user account.

Time Position Orientation Groundspeed Altitude Reporting Facility
EST Latitude Longitude Course Direction KTS MPH feet Rate Location/Type
12:54AM 33.9310 109.5456 128° Southeast  Level Estimated
12:55AM 33.8733 109.6332 128° Southeast  Level Estimated
12:56AM 33.8156 109.7207 128° Southeast  Level Estimated
12:57AM 33.7578 109.8081 128° Southeast  Level Estimated
12:58AM 33.7000 109.8954 129° Southeast  Level Estimated
12:59AM 33.6421 109.9825 129° Southeast  Level Estimated
01:00AM 33.5841 110.0696 129° Southeast  Level Estimated
01:01AM 33.5261 110.1565 129° Southeast  Level Estimated
01:02AM 33.4680 110.2433 129° Southeast  Level Estimated
01:03AM 33.4098 110.3300 129° Southeast  Level Estimated
01:04AM 33.3516 110.4166 129° Southeast  Level Estimated
01:05AM 33.2933 110.5030 129° Southeast  Level Estimated
01:06AM 33.2350 110.5893 129° Southeast  Level Estimated
01:07AM 33.1766 110.6756 129° Southeast  Level Estimated
01:08AM 33.1182 110.7617 129° Southeast  Level Estimated
01:09AM 33.0597 110.8477 129° Southeast  Level Estimated
01:10AM 33.0011 110.9335 129° Southeast  Level Estimated
01:11AM 32.9425 111.0193 129° Southeast  Level Estimated
01:12AM 32.8838 111.1050 129° Southeast  Level Estimated
01:13AM 32.8250 111.1905 129° Southeast  Level Estimated
01:14AM 32.7662 111.2759 129° Southeast  Level Estimated
01:15AM 32.7074 111.3613 129° Southeast  Level Estimated
01:16AM 32.6484 111.4464 129° Southeast  Level Estimated
01:17AM 32.5895 111.5315 129° Southeast  Level Estimated
01:18AM 32.5304 111.6165 129° Southeast  Level Estimated
01:19AM 32.4714 111.7014 130° Southeast  Level Estimated
01:20AM 32.4122 111.7861 130° Southeast  Level Estimated
01:21AM 32.3530 111.8708 130° Southeast  Level Estimated
01:22AM 32.2937 111.9553 130° Southeast  Level Estimated
01:23AM 32.2344 112.0397 130° Southeast  Level Estimated
01:24AM 32.1750 112.1240 130° Southeast  Level Estimated
01:25AM 32.1156 112.2082 130° Southeast  Level Estimated
01:26AM 32.0561 112.2923 130° Southeast  Level Estimated
01:27AM 31.9966 112.3763 130° Southeast  Level Estimated
01:28AM 31.9370 112.4602 130° Southeast  Level Estimated
01:29AM 31.8774 112.5439 130° Southeast  Level Estimated
01:30AM 31.8177 112.6276 130° Southeast  Level Estimated
01:31AM 31.7579 112.7111 130° Southeast  Level Estimated
01:32AM 31.6981 112.7946 130° Southeast  Level Estimated
01:33AM 31.6382 112.8779 130° Southeast  Level Estimated
01:34AM 31.5783 112.9611 130° Southeast  Level Estimated
01:35AM 31.5183 113.0443 130° Southeast  Level Estimated
01:36AM 31.4583 113.1273 130° Southeast  Level Estimated
01:37AM 31.3982 113.2102 130° Southeast  Level Estimated
01:38AM 31.3381 113.2930 130° Southeast  Level Estimated
01:39AM 31.2779 113.3756 130° Southeast  Level Estimated
01:40AM 31.2176 113.4582 130° Southeast  Level Estimated
01:41AM 31.1574 113.5407 130° Southeast  Level Estimated
01:42AM 31.0970 113.6231 131° Southeast  Level Estimated
01:43AM 31.0366 113.7054 131° Southeast  Level Estimated
01:44AM 30.9762 113.7875 131° Southeast  Level Estimated
01:45AM 30.9157 113.8696 131° Southeast  Level Estimated
01:46AM 30.8551 113.9516 131° Southeast  Level Estimated
01:47AM 30.7945 114.0334 131° Southeast  Level Estimated
01:48AM 30.7338 114.1152 131° Southeast  Level Estimated
01:49AM 30.6731 114.1968 131° Southeast  Level Estimated
01:50AM 30.6124 114.2784 131° Southeast  Level Estimated
01:51AM 30.5516 114.3598 131° Southeast  Level Estimated
01:52AM 30.4907 114.4412 131° Southeast  Level Estimated
01:53AM 30.4298 114.5224 131° Southeast  Level Estimated
01:54AM 30.3688 114.6035 131° Southeast  Level Estimated
01:55AM 30.3078 114.6846 131° Southeast  Level Estimated
01:56AM 30.2468 114.7655 131° Southeast  Level Estimated
01:57AM 30.1856 114.8464 131° Southeast  Level Estimated
01:58AM 30.1245 114.9271 131° Southeast  Level Estimated
01:59AM 30.0633 115.0077 131° Southeast  Level Estimated
02:00AM 30.0020 115.0883 131° Southeast  Level Estimated
02:01AM 29.9407 115.1687 131° Southeast  Level Estimated
02:02AM 29.8794 115.2491 131° Southeast  Level Estimated
02:03AM 29.8179 115.3293 131° Southeast  Level Estimated
02:04AM 29.7565 115.4094 131° Southeast  Level Estimated
02:05AM 29.6950 115.4895 131° Southeast  Level Estimated
02:06AM 29.6334 115.5694 132° Southeast  Level Estimated
02:07AM 29.5718 115.6493 132° Southeast  Level Estimated
02:08AM 29.5102 115.7290 132° Southeast  Level Estimated
02:09AM 29.4485 115.8087 132° Southeast  Level Estimated
02:10AM 29.3868 115.8882 132° Southeast  Level Estimated
02:11AM 29.3250 115.9677 132° Southeast  Level Estimated
02:12AM 29.2631 116.0471 132° Southeast  Level Estimated
02:13AM 29.2013 116.1263 132° Southeast  Level Estimated
02:14AM 29.1393 116.2055 132° Southeast  Level Estimated
02:15AM 29.0774 116.2846 132° Southeast  Level Estimated
02:16AM 29.0153 116.3636 132° Southeast  Level Estimated
02:17AM 28.9533 116.4425 132° Southeast  Level Estimated
02:18AM 28.8912 116.5212 132° Southeast  Level Estimated
02:19AM 28.8290 116.5999 132° Southeast  Level Estimated
02:20AM 28.7668 116.6785 132° Southeast  Level Estimated
02:21AM 28.7045 116.7570 132° Southeast  Level Estimated
02:22AM 28.6423 116.8355 132° Southeast  Level Estimated
02:23AM 28.5799 116.9138 132° Southeast  Level Estimated
02:24AM 28.5175 116.9920 132° Southeast  Level Estimated
02:25AM 28.4551 117.0702 132° Southeast  Level Estimated
02:26AM 28.3926 117.1482 132° Southeast  Level Estimated
02:27AM 28.3301 117.2262 132° Southeast  Level Estimated
02:28AM 28.2675 117.3040 132° Southeast  Level Estimated
02:29AM 28.2049 117.3818 132° Southeast  Level Estimated
02:30AM 28.1423 117.4595 132° Southeast  Level Estimated
02:31AM 28.0796 117.5371 132° Southeast  Level Estimated
02:32AM 28.0168 117.6146 133° Southeast  Level Estimated
02:33AM 27.9541 117.6920 133° Southeast  Level Estimated
02:34AM 27.8912 117.7693 133° Southeast  Level Estimated
02:35AM 27.8284 117.8465 133° Southeast  Level Estimated
02:36AM 27.7654 117.9237 133° Southeast  Level Estimated
02:37AM 27.7025 118.0007 133° Southeast  Level Estimated
02:38AM 27.7019 118.0014 133° Southeast  Level Estimated
02:39AM 27.7019 118.0014 348° North  Level Estimated
02:40AM 27.7019 118.0014 348° North  Level Estimated
02:41AM 27.7019 118.0014 348° North  Level Estimated
02:42AM 27.7019 118.0014 348° North  Level Estimated
02:43AM 27.7019 118.0014 348° North  Level Estimated
02:44AM 27.7019 118.0014 348° North  Level Estimated
02:45AM 27.7019 118.0014 348° North  Level Estimated